• Join FlightAware (Why Join?)
  • Login
  • US Flag 
08:28PM EDT


 

Airport Tracker/Info


-or-


 

Live Flight TrackerFlight Track Log ✈ AWE1940 ✈ 16-May-2013 ✈ KIAH - KCLT

Flight Track Log - Related Links

Times and Time Zones

All times are in EDT time to prevent confusion due to time zone crossing. See the AWE1940 flight status page for this flight to view local times or setup timezone preferences in your user account.

Time Position Orientation Groundspeed Altitude Reporting Facility
EDT Latitude Longitude Course Direction KTS MPH feet Rate Location/Type
06:52PM 29.9756 -95.2889 100° East 168 193 1,300  Level Houston Center
06:53PM 29.9661 -95.2244 100° East 210 242 3,100 1,260 Climbing Houston Center
06:54PM 29.9636 -95.1358 92° East 294 338 4,000 1,320 Climbing Houston Center
06:55PM 29.9675 -95.0447 87° East 288 331 5,900 2,100 Climbing Houston Center
06:56PM 29.9719 -94.9444 87° East 310 357 8,600 2,520 Climbing Houston Center
06:57PM 29.9772 -94.8203 87° East 322 371 11,200 2,220 Climbing Houston Center
06:58PM 29.9819 -94.6997 87° East 369 425 13,200 2,220 Climbing Houston Center
06:59PM 29.9869 -94.5739 87° East 389 448 15,800 2,100 Climbing Houston Center
07:00PM 29.9908 -94.4561 88° East 397 457 17,600 1,920 Climbing Houston Center
07:01PM 29.9967 -94.2950 88° East 421 484 19,800 1,980 Climbing Houston Center
07:02PM 30.0150 -94.1586 81° East 431 496 21,800 1,620 Climbing Houston Center
07:03PM 30.0328 -94.0189 82° East 440 506 23,200 1,440 Climbing Houston Center
07:04PM 30.0497 -93.8744 82° East 457 526 24,800 1,440 Climbing Houston Center
07:05PM 30.0692 -93.7275 81° East 466 536 26,300 1,320 Climbing Houston Center
07:06PM 30.0911 -93.5475 82° East 481 554 27,600 1,140 Climbing Houston Center
07:07PM 30.1081 -93.3931 83° East 494 568 28,700 1,080 Climbing Houston Center
07:08PM 30.1258 -93.2350 83° East 504 580 29,900 1,080 Climbing Houston Center
07:09PM 30.1458 -93.0786 82° East 500 575 31,000 480 Climbing Houston Center
07:10PM 30.1822 -92.8933 77° East 499 574 31,000  Level Houston Center
07:11PM 30.2125 -92.7394 77° East 496 571 31,100 660 Climbing Houston Center
07:12PM 30.2425 -92.5850 77° East 496 571 32,400 840 Climbing Houston Center
07:13PM 30.2722 -92.4308 77° East 494 568 32,900 240 Climbing Houston Center
07:14PM 30.3033 -92.2692 77° East 498 573 33,000  Climbing Houston Center
07:15PM 30.3328 -92.1153 77° East 496 571 33,000  Level Houston Center
07:16PM 30.3683 -91.9300 77° East 495 570 33,000  Level Houston Center
07:17PM 30.3972 -91.7753 78° East 494 568 33,000  Level Houston Center
07:18PM 30.4242 -91.6256 78° East 495 570 33,000  Level Houston Center
07:20PM 30.4553 -91.4694 77° East 497 572 33,000  Level Houston Center
07:21PM 30.4828 -91.3142 78° East 495 570 33,000  Level Houston Center
07:22PM 30.5242 -91.1275 76° East 498 573 33,000  Level Houston Center
07:23PM 30.5606 -90.9719 75° East 500 575 33,000  Level Houston Center
07:24PM 30.5947 -90.8153 76° East 500 575 33,000  Level Houston Center
07:25PM 30.6297 -90.6578 75° East 502 578 33,000  Level Houston Center
07:26PM 30.6658 -90.5011 75° East 502 578 33,000  Level Houston Center
07:27PM 30.7008 -90.3428 76° East 505 581 33,000  Level Houston Center
07:28PM 30.7417 -90.1536 76° East 502 578 33,000  Level Houston Center
07:29PM 30.7775 -89.9969 75° East 498 573 33,000  Level Houston Center
07:30PM 30.8117 -89.8397 76° East 497 572 33,000  Level Houston Center
07:31PM 30.8461 -89.6833 76° East 497 572 33,000  Level Houston Center
07:32PM 30.8783 -89.5278 76° East 494 568 33,000 -60 Level Houston Center
07:33PM 30.9119 -89.3719 76° East 494 568 32,900 -60 Descending Houston Center
07:34PM 30.9458 -89.2164 76° East 494 568 32,900  Level Houston Center
07:35PM 30.9767 -89.0600 77° East 496 571 33,000  Climbing Houston Center
07:36PM 31.0158 -88.8722 76° East 492 566 33,000  Level Houston Center
07:37PM 31.0483 -88.7175 76° East 491 565 33,000  Level Houston Center
07:38PM 31.0808 -88.5647 76° East 493 567 33,000  Level Houston Center
07:39PM 31.1317 -88.4172 68° East 493 567 33,000  Level Houston Center
07:40PM 31.2036 -88.2825 58° Northeast 491 565 33,000  Level Houston Center
07:41PM 31.2417 -88.2231 53° Northeast 489 563 33,000  Level Atlanta Center
07:42PM 31.3108 -88.0878 59° Northeast 501 577 33,000  Level Atlanta Center
07:42PM 31.3544 -88.0039 59° Northeast 488 562 33,000  Level Houston Center
07:43PM 31.3842 -87.9525 56° Northeast 496 571 33,000  Level Atlanta Center
07:44PM 31.4553 -87.8167 58° Northeast 486 559 33,000  Level Atlanta Center
07:45PM 31.5258 -87.6833 58° Northeast 486 559 33,000  Level Atlanta Center
07:46PM 31.5967 -87.5497 58° Northeast 481 554 33,000  Level Atlanta Center
07:47PM 31.6628 -87.4181 59° Northeast 481 554 33,000  Level Atlanta Center
07:48PM 31.7269 -87.2861 60° Northeast 470 541 33,000  Level Atlanta Center
07:49PM 31.7969 -87.1567 58° Northeast 464 534 33,000  Level Atlanta Center
07:50PM 31.8650 -87.0269 58° Northeast 457 526 33,000  Level Atlanta Center
07:51PM 31.9306 -86.8947 60° Northeast 457 526 33,000  Level Atlanta Center
07:52PM 31.9983 -86.7622 59° Northeast 457 526 33,000  Level Atlanta Center
07:53PM 32.0767 -86.6197 57° Northeast 463 533 33,000  Level Atlanta Center
07:54PM 32.1439 -86.4869 59° Northeast 468 539 33,000  Level Atlanta Center
07:55PM 32.1964 -86.3681 62° Northeast 468 539 33,000  Level Atlanta Center
07:56PM 32.2639 -86.2175 62° Northeast 461 531 33,000  Level Atlanta Center
07:57PM 32.3308 -86.0864 59° Northeast 456 525 33,000  Level Atlanta Center
07:58PM 32.4017 -85.9578 57° Northeast 461 531 33,000  Level Atlanta Center
07:59PM 32.4661 -85.8336 58° Northeast 461 531 33,000  Level Atlanta Center
08:00PM 32.5369 -85.7044 57° Northeast 461 531 33,000  Level Atlanta Center
08:01PM 32.6053 -85.5800 57° Northeast 456 525 33,000  Level Atlanta Center
08:02PM 32.6717 -85.4528 58° Northeast 449 517 33,000  Level Atlanta Center
08:03PM 32.7375 -85.3303 57° Northeast 449 517 33,000  Level Atlanta Center
08:04PM 32.8306 -85.2303 42° Northeast 449 517 33,000  Level Atlanta Center
08:05PM 32.9167 -85.1500 38° Northeast 438 504 33,000  Level Atlanta Center
08:06PM 33.0156 -85.0569 38° Northeast 444 511 33,000  Level Atlanta Center
08:07PM 33.1083 -84.9589 42° Northeast 444 511 33,000  Level Atlanta Center
08:08PM 33.2133 -84.8533 40° Northeast 449 517 33,000  Level Atlanta Center
08:09PM 33.3122 -84.7572 39° Northeast 449 517 33,000  Level Atlanta Center
08:10PM 33.4086 -84.6608 40° Northeast 449 517 33,000  Level Atlanta Center
08:11PM 33.5031 -84.5619 41° Northeast 449 517 33,000  Level Atlanta Center
08:12PM 33.5994 -84.4628 41° Northeast 454 522 33,000  Level Atlanta Center
08:13PM 33.6583 -84.3258 63° Northeast 439 505 33,000  Level Atlanta Center
08:14PM 33.7022 -84.1761 71° East 447 514 33,000  Level Atlanta Center
08:15PM 33.7419 -84.0264 72° East 468 539 33,000  Level Atlanta Center
08:16PM 33.7836 -83.8814 71° East 462 532 33,000  Level Atlanta Center
08:17PM 33.8253 -83.7311 72° East 462 532 33,000 -360 Level Atlanta Center
08:18PM 33.8644 -83.5861 72° East 462 532 32,300 -900 Descending Atlanta Center
08:19PM 33.9075 -83.4406 70° East 462 532 31,200 -1,140 Descending Atlanta Center
08:20PM 33.9464 -83.2975 72° East 456 525 30,100 -1,080 Descending Atlanta Center
08:21PM 33.9853 -83.1544 72° East 450 518 29,100 -1,020 Descending Atlanta Center
08:22PM 34.0217 -83.0211 72° East 425 489 28,100 -900 Descending Atlanta Center
08:23PM 34.0561 -82.9006 71° East 420 483 27,300 -900 Descending Atlanta Center
08:24PM 34.0883 -82.7697 73° East 408 470 26,300 -1,020 Descending Atlanta Center
08:25PM 34.1264 -82.6386 71° East 408 470 25,300 -1,080 Descending Atlanta Center
08:26PM 34.1625 -82.5000 72° East 400 460 24,200 -660 Descending Atlanta Center
08:27PM 34.1961 -82.3686 73° East 400 460 24,000 -180 Descending Atlanta Center
08:28PM 34.2297 -82.2372 73° East 400 460 23,900 -600 Descending Atlanta Center
08:29PM 34.2800 -82.1131 64° Northeast 405 466 22,900 -1,020 Descending Atlanta Center
08:30PM 34.3558 -82.0183 46° Northeast 400 460 21,900 -1,200 Descending Atlanta Center
08:31PM 34.4314 -81.9258 45° Northeast 389 448 20,600 -4,980 Descending Atlanta Center
08:32PM 34.5028 -81.8333 47° Northeast 378 435 12,000 -1,920 Descending Atlanta Center
08:33PM 34.5744 -81.7481 44° Northeast 372 428 16,800 1,440 Climbing Atlanta Center
08:34PM 34.6311 -81.6683 49° Northeast 355 409 14,900 -2,160 Descending Atlanta Center
08:34PM 34.6700 -81.6269 41° Northeast 347 399 13,800 -2,040 Descending Atlanta Center
08:35PM 34.7006 -81.5856 48° Northeast 346 398 12,900 -1,800 Descending Atlanta Center
08:35PM 34.7353 -81.5417 46° Northeast 341 392 12,000 -900 Descending Atlanta Center
08:36PM 34.7636 -81.5028 48° Northeast 339 390 12,000  Level Atlanta Center
08:36PM 34.8003 -81.4561 46° Northeast 345 397 12,000  Level Atlanta Center
08:37PM 34.8389 -81.4094 45° Northeast 334 384 12,000 -300 Level Atlanta Center
08:37PM 34.8672 -81.3681 50° Northeast 348 400 11,700 -1,620 Descending Atlanta Center
08:38PM 34.9058 -81.3236 43° Northeast 334 384 10,400 -1,620 Descending Atlanta Center
08:38PM 34.9342 -81.2847 48° Northeast 348 400 10,100 -420 Descending Atlanta Center
08:39PM 34.9686 -81.2406 46° Northeast 334 384 10,000 -120 Descending Atlanta Center
08:39PM 35.0072 -81.1936 45° Northeast 345 397 10,000 -120 Level Atlanta Center
08:40PM 35.0356 -81.1544 49° Northeast 334 384 9,900 -900 Descending Atlanta Center
08:40PM 35.0658 -81.1181 45° Northeast 315 362 9,100 -900 Descending Atlanta Center
08:41PM 35.0986 -81.0914 34° Northeast 314 361 9,000 -120 Descending Atlanta Center
08:41PM 35.1400 -81.0722 21° North 291 335 9,000  Level Atlanta Center
08:42PM 35.1753 -81.0608 15° North 288 331 9,000 -540 Level Atlanta Center
08:42PM 35.2122 -81.0442 20° North 253 291 8,500 -1,320 Descending Atlanta Center
08:43PM 35.2411 -81.0253 28° Northeast 265 305 7,700 -1,500 Descending Atlanta Center
08:43PM 35.2694 -80.9911 45° Northeast 249 287 7,000 -1,200 Descending Atlanta Center
08:44PM 35.3161 -80.9361 44° Northeast 230 265 5,800 -1,020 Descending Atlanta Center
08:45PM 35.3625 -80.8783 45° Northeast 224 258 5,000 -420 Descending Atlanta Center
08:46PM 35.4025 -80.8156 52° Northeast 227 261 5,000 -300 Level Atlanta Center
08:47PM 35.4133 -80.7464 79° East 223 257 4,500 -540 Descending Atlanta Center
08:48PM 35.3656 -80.7533 187° South 182 209 4,000 -360 Descending Atlanta Center
08:49PM 35.3247 -80.7906 217° Southwest 171 197 3,800 -240 Descending Atlanta Center